Time;durP1;ratioP1;P1;durP2;ratioP2;P2;SDS_P1;SDS_P2;PMS_P1;PMS_P2;Temp;Humidity;BMP_temperature;BMP_pressure;BME280_temperature;BME280_humidity;BME280_pressure;Samples;Min_cycle;Max_cycle;Signal;HPM_P1;HPM_P2
2023/04/06 00:02:20;;;;;;;417.00;315.17;;;;;;;25.51;38.85;101741.97;5033610;28;20450;-60
2023/04/06 00:04:48;;;;;;;423.15;317.23;;;;;;;25.43;38.65;101748.84;5034002;28;20033;-58
2023/04/06 00:07:17;;;;;;;437.45;331.70;;;;;;;25.46;39.22;101755.03;5034055;28;20029;-51
2023/04/06 00:09:46;;;;;;;436.42;326.35;;;;;;;25.41;39.11;101751.38;5033634;28;20116;-60
2023/04/06 00:12:15;;;;;;;424.67;322.00;;;;;;;25.37;39.09;101739.06;5032323;28;20443;-59
2023/04/06 00:14:43;;;;;;;430.80;322.40;;;;;;;25.34;38.98;101728.50;5033527;28;20021;-60
2023/04/06 00:17:13;;;;;;;445.20;329.27;;;;;;;25.35;39.02;101725.00;5033629;28;20529;-49
2023/04/06 00:19:41;;;;;;;440.02;341.92;;;;;;;25.34;39.39;101732.00;5033653;28;20096;-60
2023/04/06 00:22:10;;;;;;;431.95;334.10;;;;;;;25.40;38.97;101738.22;5033801;28;20021;-49
2023/04/06 00:24:39;;;;;;;433.67;332.20;;;;;;;25.42;38.86;101741.81;5033361;28;20029;-51
2023/04/06 00:27:07;;;;;;;434.17;328.90;;;;;;;25.38;39.25;101730.34;5032439;28;20029;-49
2023/04/06 00:29:36;;;;;;;442.85;333.75;;;;;;;25.38;39.07;101732.06;5033754;28;20025;-60
2023/04/06 00:32:05;;;;;;;423.38;327.48;;;;;;;25.37;39.04;101725.03;5033105;28;20041;-49
2023/04/06 00:34:33;;;;;;;427.67;328.77;;;;;;;25.36;38.83;101726.78;5033375;28;20434;-60
2023/04/06 00:37:02;;;;;;;427.73;330.15;;;;;;;25.33;39.10;101722.34;5032141;28;20033;-59
2023/04/06 00:39:31;;;;;;;429.13;327.55;;;;;;;25.37;39.12;101727.66;5015997;28;20025;-49
2023/04/06 00:42:00;;;;;;;424.60;325.17;;;;;;;25.34;39.28;101726.72;5033096;28;20077;-59
2023/04/06 00:44:29;;;;;;;457.70;348.88;;;;;;;25.34;39.35;101724.09;5033308;28;20029;-60
2023/04/06 00:46:57;;;;;;;438.33;339.05;;;;;;;25.33;39.37;101721.47;5033256;28;20029;-58
2023/04/06 00:49:26;;;;;;;425.30;322.65;;;;;;;25.23;39.01;101719.53;5032159;28;20394;-59
2023/04/06 00:51:55;;;;;;;436.00;335.35;;;;;;;25.27;39.55;101718.72;5032126;28;20053;-59
2023/04/06 00:54:23;;;;;;;431.25;334.85;;;;;;;25.28;38.94;101715.22;5033020;28;20041;-59
2023/04/06 00:56:52;;;;;;;440.13;336.45;;;;;;;25.30;39.11;101719.69;5033387;28;20525;-59
2023/04/06 00:59:20;;;;;;;442.25;336.50;;;;;;;25.33;39.07;101711.81;5033169;28;20484;-60
2023/04/06 01:01:50;;;;;;;425.98;327.83;;;;;;;25.28;39.02;101713.50;5033035;28;20478;-58
2023/04/06 01:04:18;;;;;;;427.33;328.42;;;;;;;25.29;39.23;101712.66;5033041;28;20037;-48
2023/04/06 01:06:47;;;;;;;420.65;315.33;;;;;;;25.20;39.19;101704.56;5032798;28;20040;-57
2023/04/06 01:09:16;;;;;;;411.77;320.52;;;;;;;25.23;39.34;101695.91;5032662;28;20040;-55
2023/04/06 01:11:44;;;;;;;425.60;327.92;;;;;;;25.32;39.15;101701.31;5033341;28;20134;-55
2023/04/06 01:14:13;;;;;;;438.58;338.33;;;;;;;25.27;39.33;101688.09;5032475;28;20498;-59
2023/04/06 01:16:43;;;;;;;439.98;343.73;;;;;;;25.34;39.34;101691.72;5033133;28;20026;-60
2023/04/06 01:19:12;;;;;;;442.33;337.40;;;;;;;25.17;39.46;101678.25;5031672;28;20026;-59
2023/04/06 01:21:41;;;;;;;437.98;338.13;;;;;;;25.05;39.66;101668.44;5032873;28;20025;-60
2023/04/06 01:24:10;;;;;;;437.23;333.80;;;;;;;25.22;39.38;101660.84;5032771;28;20030;-59
2023/04/06 01:26:41;;;;;;;443.50;340.08;;;;;;;25.25;39.42;101665.28;5032855;28;20474;-49
2023/04/06 01:29:10;;;;;;;434.10;329.08;;;;;;;25.07;39.15;101655.31;5032464;28;20032;-59
2023/04/06 01:31:38;;;;;;;419.55;324.13;;;;;;;24.96;39.43;101658.63;5032844;28;20433;-59
2023/04/06 01:34:07;;;;;;;428.40;325.33;;;;;;;24.96;39.75;101668.22;5032645;28;20087;-56
2023/04/06 01:36:36;;;;;;;434.13;334.85;;;;;;;25.10;39.29;101669.38;5032483;28;20029;-59
2023/04/06 01:39:04;;;;;;;433.58;332.95;;;;;;;25.16;39.32;101664.25;5033053;28;20100;-56
2023/04/06 01:41:33;;;;;;;426.48;332.85;;;;;;;25.29;39.04;101669.72;5032897;28;20036;-60
2023/04/06 01:44:02;;;;;;;434.73;332.80;;;;;;;25.22;39.29;101663.47;5032638;28;20418;-59
2023/04/06 01:46:31;;;;;;;433.90;338.60;;;;;;;25.17;39.35;101659.88;5032756;28;20382;-59
2023/04/06 01:49:00;;;;;;;436.20;334.95;;;;;;;25.20;39.39;101659.94;5032582;28;20072;-58
2023/04/06 01:51:28;;;;;;;446.60;346.38;;;;;;;25.29;39.54;101662.75;5032844;28;20133;-59
2023/04/06 01:53:57;;;;;;;437.00;334.40;;;;;;;25.26;38.92;101656.53;5031256;28;20068;-48
2023/04/06 01:56:26;;;;;;;428.52;325.33;;;;;;;25.29;38.74;101660.13;5033243;28;20030;-59
2023/04/06 01:58:55;;;;;;;437.83;334.52;;;;;;;25.38;38.80;101663.75;5032710;28;20389;-60
2023/04/06 02:01:24;;;;;;;430.70;335.50;;;;;;;25.30;38.99;101667.16;5032393;28;20441;-60
2023/04/06 02:03:52;;;;;;;444.77;341.92;;;;;;;25.28;39.52;101662.72;5032440;28;20025;-59
2023/04/06 02:06:21;;;;;;;444.55;341.83;;;;;;;25.32;39.00;101661.91;5032589;28;20462;-60
2023/04/06 02:08:49;;;;;;;429.63;327.65;;;;;;;25.24;39.11;101663.50;5032294;28;20041;-53
2023/04/06 02:11:18;;;;;;;430.48;330.88;;;;;;;25.31;38.99;101655.78;5032023;28;20466;-60
2023/04/06 02:13:46;;;;;;;439.77;336.42;;;;;;;25.24;39.27;101648.66;5032295;28;20084;-59
2023/04/06 02:16:15;;;;;;;418.83;324.52;;;;;;;25.20;39.25;101645.94;5032418;28;20418;-59
2023/04/06 02:18:44;;;;;;;440.52;339.65;;;;;;;25.25;38.97;101650.41;5032155;28;20030;-49
2023/04/06 02:21:12;;;;;;;419.48;319.33;;;;;;;25.26;38.97;101648.66;5034140;28;20033;-59
2023/04/06 02:23:41;;;;;;;411.52;314.20;;;;;;;25.20;38.76;101643.31;5036013;28;20390;-53
2023/04/06 02:26:08;;;;;;;425.23;328.65;;;;;;;25.21;39.07;101643.34;5035821;28;20105;-59
2023/04/06 02:28:37;;;;;;;435.52;327.02;;;;;;;25.20;39.09;101644.19;5036044;28;20121;-58
2023/04/06 02:31:06;;;;;;;415.08;314.75;;;;;;;25.19;38.97;101647.66;5034521;28;20449;-58
2023/04/06 02:33:34;;;;;;;414.75;321.58;;;;;;;25.14;38.78;101638.84;5035829;28;20033;-55
2023/04/06 02:36:03;;;;;;;431.67;330.88;;;;;;;25.26;38.87;101649.56;5035630;28;20465;-58
2023/04/06 02:38:32;;;;;;;438.00;334.67;;;;;;;25.31;38.79;101653.16;5035567;28;20032;-60
2023/04/06 02:41:00;;;;;;;446.02;333.00;;;;;;;25.31;38.72;101654.91;5035459;28;20398;-59
2023/04/06 02:43:29;;;;;;;431.67;327.90;;;;;;;25.27;38.94;101653.97;5035725;28;20524;-59
2023/04/06 02:45:58;;;;;;;424.73;326.48;;;;;;;25.26;38.69;101646.03;5035650;28;20122;-52
2023/04/06 02:48:26;;;;;;;425.45;322.23;;;;;;;25.25;39.11;101653.03;5035916;28;20099;-58
2023/04/06 02:50:55;;;;;;;451.65;341.90;;;;;;;25.20;39.15;101654.69;5035066;28;20033;-60
2023/04/06 02:53:24;;;;;;;432.00;327.77;;;;;;;25.26;38.86;101651.28;5034762;28;20056;-60
2023/04/06 02:55:52;;;;;;;421.02;325.30;;;;;;;25.28;38.68;101650.47;5035275;28;20029;-60
2023/04/06 02:58:21;;;;;;;417.58;311.70;;;;;;;25.17;38.71;101626.66;5034888;28;20494;-60
2023/04/06 03:00:50;;;;;;;392.98;296.98;;;;;;;25.31;37.98;101654.91;5035285;28;20037;-59
2023/04/06 03:03:18;;;;;;;439.05;335.52;;;;;;;25.29;39.10;101648.72;5035160;28;20166;-57
2023/04/06 03:05:47;;;;;;;411.10;318.85;;;;;;;25.20;38.87;101649.44;5034676;28;20120;-59
2023/04/06 03:08:15;;;;;;;420.35;321.77;;;;;;;25.26;38.49;101649.56;5035012;28;20103;-59
2023/04/06 03:10:44;;;;;;;417.55;311.27;;;;;;;25.12;38.95;101653.69;5035062;28;20040;-58
2023/04/06 03:13:12;;;;;;;413.25;321.77;;;;;;;25.07;38.96;101650.94;5035201;28;20037;-59
2023/04/06 03:15:41;;;;;;;424.40;319.85;;;;;;;25.01;39.41;101642.97;5034858;28;20033;-59
2023/04/06 03:18:09;;;;;;;434.83;332.73;;;;;;;25.08;39.20;101651.84;5034692;28;20029;-58
2023/04/06 03:20:38;;;;;;;438.92;332.45;;;;;;;25.02;39.19;101640.34;5034580;28;20356;-55
2023/04/06 03:23:06;;;;;;;425.48;324.48;;;;;;;24.98;39.16;101633.31;5034929;28;20078;-60
2023/04/06 03:25:35;;;;;;;426.58;319.85;;;;;;;25.10;39.17;101651.00;5035100;28;20017;-58
2023/04/06 03:28:04;;;;;;;447.90;343.40;;;;;;;25.07;39.66;101643.06;5034885;28;20025;-59
2023/04/06 03:30:32;;;;;;;430.77;327.05;;;;;;;24.95;39.54;101648.97;5034724;28;20028;-59
2023/04/06 03:33:01;;;;;;;426.17;321.48;;;;;;;24.91;39.67;101649.78;5033956;28;20026;-60
2023/04/06 03:35:30;;;;;;;437.92;334.90;;;;;;;24.84;39.55;101645.25;5034833;28;20029;-60
2023/04/06 03:37:58;;;;;;;420.48;322.00;;;;;;;24.99;39.41;101640.28;5034134;28;20026;-58
2023/04/06 03:40:27;;;;;;;411.80;310.38;;;;;;;25.05;38.73;101631.69;5033359;28;20375;-51
2023/04/06 03:42:56;;;;;;;404.35;305.73;;;;;;;25.11;38.54;101634.41;5034210;28;20474;-59
2023/04/06 03:45:24;;;;;;;413.80;312.08;;;;;;;25.08;38.72;101629.09;5034388;28;20029;-60
2023/04/06 03:47:53;;;;;;;407.20;310.10;;;;;;;25.02;39.11;101616.72;5034460;28;20057;-59
2023/04/06 03:50:22;;;;;;;409.30;312.52;;;;;;;24.99;39.13;101621.91;5034458;28;20061;-59
2023/04/06 03:52:50;;;;;;;397.67;299.73;;;;;;;24.94;39.25;101620.97;5033744;28;20049;-59
2023/04/06 03:55:19;;;;;;;396.02;294.45;;;;;;;24.92;38.98;101620.03;5034079;28;20029;-57
2023/04/06 03:57:47;;;;;;;409.42;310.40;;;;;;;25.00;39.00;101628.06;5034484;28;20029;-59
2023/04/06 04:00:16;;;;;;;409.17;308.35;;;;;;;24.91;39.20;101618.28;5034083;28;20025;-59
2023/04/06 04:02:45;;;;;;;401.58;306.02;;;;;;;24.87;39.37;101621.69;5034304;28;20026;-58
2023/04/06 04:05:14;;;;;;;415.50;313.33;;;;;;;24.80;39.44;101617.19;5034046;28;20037;-48
2023/04/06 04:07:43;;;;;;;387.38;287.02;;;;;;;24.73;39.31;101613.56;5034607;28;20072;-60
2023/04/06 04:10:11;;;;;;;391.42;293.27;;;;;;;24.82;39.08;101616.34;5034099;28;20027;-58
2023/04/06 04:12:40;;;;;;;393.83;288.73;;;;;;;24.87;39.27;101614.72;5034064;28;20071;-59
2023/04/06 04:15:09;;;;;;;386.65;282.58;;;;;;;24.93;38.88;101611.31;5034004;28;20025;-59
2023/04/06 04:17:38;;;;;;;378.13;283.23;;;;;;;24.87;39.02;101600.69;5033879;28;20474;-54
2023/04/06 04:20:07;;;;;;;388.38;286.27;;;;;;;25.02;38.94;101607.97;5033972;28;20127;-59
2023/04/06 04:22:36;;;;;;;376.45;283.52;;;;;;;24.88;39.09;101605.09;5033729;28;20120;-56
2023/04/06 04:25:04;;;;;;;369.98;279.60;;;;;;;24.79;39.20;101600.53;5033731;28;20056;-59
2023/04/06 04:27:33;;;;;;;382.23;288.60;;;;;;;24.81;39.37;101597.97;5033802;28;20028;-55
2023/04/06 04:30:02;;;;;;;364.52;274.40;;;;;;;24.81;39.14;101601.47;5033245;28;20032;-60
2023/04/06 04:32:30;;;;;;;384.58;283.40;;;;;;;24.78;39.55;101587.41;5033619;28;20103;-49
2023/04/06 04:34:59;;;;;;;384.40;284.70;;;;;;;24.76;39.20;101583.88;5033287;28;20128;-60
2023/04/06 04:37:28;;;;;;;383.08;278.92;;;;;;;24.76;39.20;101578.63;5033246;28;20032;-59
2023/04/06 04:39:57;;;;;;;377.88;280.40;;;;;;;24.69;39.48;101574.97;5033213;28;20087;-60
2023/04/06 04:42:26;;;;;;;356.70;264.65;;;;;;;24.67;39.45;101574.91;5033360;28;20025;-60
2023/04/06 04:44:55;;;;;;;370.75;280.77;;;;;;;24.83;39.37;101570.00;5033348;28;20470;-58
2023/04/06 04:47:23;;;;;;;368.67;274.02;;;;;;;24.78;39.24;101561.16;5032024;28;20029;-50
2023/04/06 04:49:52;;;;;;;386.05;283.60;;;;;;;24.75;39.46;101553.22;5033050;28;20030;-59
2023/04/06 04:52:20;;;;;;;369.42;272.60;;;;;;;24.78;39.10;101556.78;5033326;28;20049;-60
2023/04/06 04:54:49;;;;;;;370.13;272.85;;;;;;;24.81;39.14;101554.22;5033209;28;20486;-48
2023/04/06 04:57:18;;;;;;;367.35;268.33;;;;;;;24.76;39.32;101560.25;5033184;28;20033;-59
2023/04/06 04:59:46;;;;;;;361.67;265.85;;;;;;;24.71;39.38;101557.53;5033185;28;20033;-60
2023/04/06 05:02:15;;;;;;;371.15;271.60;;;;;;;24.76;39.34;101544.50;5033020;28;20383;-59
2023/04/06 05:04:44;;;;;;;375.48;275.00;;;;;;;24.75;39.09;101533.13;5032991;28;20068;-59
2023/04/06 05:07:12;;;;;;;363.75;266.92;;;;;;;24.65;39.30;101541.63;5033101;28;20025;-60
2023/04/06 05:09:41;;;;;;;353.05;260.20;;;;;;;24.66;39.25;101546.03;5033145;28;20033;-50
2023/04/06 05:12:10;;;;;;;370.15;263.05;;;;;;;24.77;39.31;101530.53;5033078;28;20096;-60
2023/04/06 05:14:40;;;;;;;363.10;266.98;;;;;;;24.70;39.33;101535.66;5032802;28;20029;-59
2023/04/06 05:17:08;;;;;;;352.75;260.80;;;;;;;24.72;39.28;101540.94;5033280;28;20048;-59
2023/04/06 05:19:36;;;;;;;349.15;261.23;;;;;;;24.62;39.30;101537.22;5032883;28;20419;-58
2023/04/06 05:22:05;;;;;;;374.63;277.45;;;;;;;24.58;39.60;101546.75;5032922;28;20064;-59
2023/04/06 05:24:34;;;;;;;373.92;272.63;;;;;;;24.56;39.66;101548.50;5032452;28;20453;-50
2023/04/06 05:27:03;;;;;;;371.08;267.05;;;;;;;24.59;39.37;101552.91;5031662;28;20022;-59
2023/04/06 05:29:31;;;;;;;377.00;279.80;;;;;;;24.57;39.75;101547.59;5032573;28;20067;-56
2023/04/06 05:32:00;;;;;;;362.73;270.45;;;;;;;24.54;39.66;101560.69;5032853;28;20036;-60
2023/04/06 05:34:29;;;;;;;367.23;268.95;;;;;;;24.51;39.79;101571.13;5031689;28;20056;-59
2023/04/06 05:36:57;;;;;;;375.75;269.02;;;;;;;24.52;39.56;101569.34;5030950;28;20029;-59
2023/04/06 05:39:26;;;;;;;380.15;278.63;;;;;;;24.50;39.91;101576.31;5032676;28;20022;-59
2023/04/06 05:41:55;;;;;;;367.17;268.83;;;;;;;24.47;39.95;101569.28;5032681;28;20029;-60
2023/04/06 05:44:23;;;;;;;368.50;275.23;;;;;;;24.48;39.63;101573.66;5032614;28;20033;-60
2023/04/06 05:46:52;;;;;;;363.42;267.88;;;;;;;24.43;39.91;101576.19;5032497;28;20021;-49
2023/04/06 05:49:20;;;;;;;353.25;262.40;;;;;;;24.49;39.72;101585.06;5032559;28;20032;-60
2023/04/06 05:51:49;;;;;;;377.52;275.60;;;;;;;24.52;39.87;101583.38;5032641;28;20058;-48
2023/04/06 05:54:18;;;;;;;377.70;276.42;;;;;;;24.56;40.05;101579.06;5032601;28;20025;-48
2023/04/06 05:56:46;;;;;;;360.33;261.23;;;;;;;24.55;39.82;101579.91;5035152;28;20061;-54
2023/04/06 05:59:15;;;;;;;360.33;262.13;;;;;;;24.52;39.86;101579.84;5036419;28;20029;-58
2023/04/06 06:01:44;;;;;;;354.55;262.90;;;;;;;24.47;39.93;101581.53;5036626;28;20048;-58
2023/04/06 06:04:12;;;;;;;357.75;254.20;;;;;;;24.41;40.06;101584.88;5036637;28;20064;-49
2023/04/06 06:06:41;;;;;;;336.27;249.65;;;;;;;24.46;39.46;101585.88;5035955;28;20416;-58
2023/04/06 06:09:09;;;;;;;345.63;254.60;;;;;;;24.65;39.10;101595.00;5034851;28;20340;-49
2023/04/06 06:11:38;;;;;;;337.55;241.63;;;;;;;24.62;39.10;101600.19;5036214;28;20053;-59
2023/04/06 06:14:07;;;;;;;322.77;231.40;;;;;;;24.63;39.00;101601.06;5035834;28;20116;-58
2023/04/06 06:16:35;;;;;;;321.00;233.20;;;;;;;24.59;39.21;101605.38;5036548;28;20087;-59
2023/04/06 06:19:04;;;;;;;320.88;217.48;;;;;;;24.49;39.46;101604.28;5036231;28;20025;-47
2023/04/06 06:21:32;;;;;;;282.23;216.60;;;;;;;24.54;39.43;101601.75;5036110;28;20104;-60
2023/04/06 06:24:01;;;;;;;283.35;203.63;;;;;;;24.48;39.50;101601.66;5036052;28;20013;-60
2023/04/06 06:26:30;;;;;;;279.33;202.40;;;;;;;24.60;38.94;101606.25;5036036;28;20079;-58
2023/04/06 06:28:59;;;;;;;291.70;206.68;;;;;;;24.53;39.09;101599.97;5035697;28;20359;-49
2023/04/06 06:31:27;;;;;;;267.33;188.90;;;;;;;24.52;39.29;101603.47;5034611;28;20462;-59
2023/04/06 06:33:56;;;;;;;268.60;195.32;;;;;;;24.48;39.35;101599.03;5035679;28;20055;-59
2023/04/06 06:36:25;;;;;;;256.48;186.40;;;;;;;24.53;38.82;101607.84;5035809;28;20446;-60
2023/04/06 06:38:53;;;;;;;251.45;178.73;;;;;;;24.45;39.30;101609.44;5035665;28;20025;-60
2023/04/06 06:41:22;;;;;;;245.88;177.30;;;;;;;24.43;39.38;101609.41;5035731;28;20029;-58
2023/04/06 06:43:51;;;;;;;234.80;165.35;;;;;;;24.57;38.63;101618.44;5035557;28;20036;-60
2023/04/06 06:46:18;;;;;;;222.88;156.60;;;;;;;24.62;38.44;101601.91;5041986;28;20089;-59
2023/04/06 06:48:45;;;;;;;211.48;153.20;;;;;;;24.72;38.27;101617.91;5046619;28;20036;-59
2023/04/06 06:51:13;;;;;;;193.65;139.23;;;;;;;24.80;38.39;101618.06;5054240;28;20025;-59
2023/04/06 06:53:41;;;;;;;181.60;128.68;;;;;;;24.63;38.40;101612.47;5054409;28;20466;-51
2023/04/06 06:56:09;;;;;;;173.88;121.47;;;;;;;24.60;38.53;101622.88;5052028;28;20025;-60
2023/04/06 06:58:38;;;;;;;168.52;114.90;;;;;;;24.66;38.25;101622.13;5053400;28;20021;-55
2023/04/06 07:01:06;;;;;;;135.52;99.07;;;;;;;24.69;38.12;101625.69;5049642;28;20033;-60
2023/04/06 07:03:35;;;;;;;132.70;93.35;;;;;;;24.65;38.61;101626.50;5050309;28;20064;-59
2023/04/06 07:06:03;;;;;;;128.40;93.20;;;;;;;24.50;38.87;101627.03;5051179;28;20037;-60
2023/04/06 07:08:31;;;;;;;111.82;81.28;;;;;;;24.45;38.79;101630.44;5051484;28;20027;-60
2023/04/06 07:11:00;;;;;;;102.95;73.32;;;;;;;24.39;38.91;101626.81;5048264;28;20489;-49
2023/04/06 07:13:28;;;;;;;89.00;59.42;;;;;;;24.49;38.28;101622.66;5035144;28;20033;-60
2023/04/06 07:15:57;;;;;;;69.07;48.78;;;;;;;24.58;38.49;101628.06;5033726;28;20037;-59
2023/04/06 07:18:26;;;;;;;57.47;40.78;;;;;;;24.52;38.33;101621.81;5034936;28;20029;-60
2023/04/06 07:20:54;;;;;;;61.00;41.30;;;;;;;24.58;38.41;101619.34;5034742;28;20113;-59
2023/04/06 07:23:23;;;;;;;53.95;36.72;;;;;;;24.48;38.55;101612.13;5035218;28;20104;-55
2023/04/06 07:25:52;;;;;;;54.78;36.30;;;;;;;24.39;38.28;101600.59;5034217;28;20473;-58
2023/04/06 07:28:20;;;;;;;51.70;34.08;;;;;;;24.40;38.39;101610.22;5050084;28;20082;-58
2023/04/06 07:30:48;;;;;;;47.45;31.42;;;;;;;24.43;38.42;101604.16;5053904;28;20117;-50
2023/04/06 07:33:15;;;;;;;46.55;28.80;;;;;;;24.62;38.14;101609.78;5045972;28;20029;-57
2023/04/06 07:35:43;;;;;;;45.08;29.15;;;;;;;24.69;38.03;101614.31;5053964;28;20021;-60
2023/04/06 07:38:11;;;;;;;38.00;27.60;;;;;;;24.46;38.35;101613.84;5052755;28;20461;-58
2023/04/06 07:40:39;;;;;;;38.63;24.85;;;;;;;24.39;38.66;101623.31;5049724;28;20029;-59
2023/04/06 07:43:07;;;;;;;39.45;25.10;;;;;;;24.40;38.22;101620.72;5053672;28;20029;-58
2023/04/06 07:45:36;;;;;;;39.97;26.15;;;;;;;24.54;38.35;101625.38;5053055;28;20116;-60
2023/04/06 07:48:05;;;;;;;36.72;24.52;;;;;;;24.71;37.93;101629.25;5052697;28;20032;-58
2023/04/06 07:50:33;;;;;;;37.78;22.88;;;;;;;24.42;38.13;101637.38;5054327;28;20028;-48
2023/04/06 07:53:02;;;;;;;41.08;26.33;;;;;;;24.54;38.06;101638.47;5053448;28;20045;-60
2023/04/06 07:55:31;;;;;;;40.25;25.73;;;;;;;24.64;38.12;101635.22;5052415;28;20474;-60
2023/04/06 07:57:59;;;;;;;36.88;24.63;;;;;;;24.58;38.08;101630.69;5054156;28;20474;-59
2023/04/06 08:00:27;;;;;;;33.10;22.10;;;;;;;24.56;38.17;101639.41;5054201;28;20024;-49
2023/04/06 08:02:56;;;;;;;34.80;22.00;;;;;;;24.48;38.26;101633.13;5053786;28;20117;-49
2023/04/06 08:05:24;;;;;;;32.35;22.17;;;;;;;24.42;37.97;101649.59;5053648;28;20037;-49
2023/04/06 08:07:53;;;;;;;35.88;19.15;;;;;;;24.41;37.94;101646.09;5053904;28;20056;-55
2023/04/06 08:10:22;;;;;;;31.30;19.77;;;;;;;24.38;37.93;101646.00;5053763;28;20048;-60
2023/04/06 08:12:51;;;;;;;30.63;20.25;;;;;;;24.49;37.73;101640.13;5053815;28;20052;-49
2023/04/06 08:15:20;;;;;;;33.63;20.75;;;;;;;24.39;37.81;101626.81;5053640;28;20064;-60
2023/04/06 08:17:49;;;;;;;27.70;18.90;;;;;;;24.33;38.59;101646.78;5053134;28;20122;-48
2023/04/06 08:20:18;;;;;;;28.10;18.45;;;;;;;24.46;37.79;101634.81;5053725;28;20033;-60
2023/04/06 08:22:47;;;;;;;28.90;19.23;;;;;;;24.41;37.85;101640.84;5053445;28;20029;-59
2023/04/06 08:25:16;;;;;;;26.85;19.73;;;;;;;24.16;38.56;101635.91;5052428;28;20078;-60
2023/04/06 08:27:45;;;;;;;31.73;18.98;;;;;;;24.39;38.11;101650.41;5053511;28;20025;-59
2023/04/06 08:30:15;;;;;;;30.27;17.52;;;;;;;24.46;38.21;101646.19;5053466;28;20036;-60
2023/04/06 08:32:44;;;;;;;34.47;19.52;;;;;;;24.41;38.44;101642.56;5053377;28;20032;-48
2023/04/06 08:35:13;;;;;;;39.17;21.58;;;;;;;24.30;38.62;101649.31;5053369;28;20033;-60
2023/04/06 08:37:42;;;;;;;35.50;22.42;;;;;;;24.40;38.73;101646.94;5053033;28;20028;-60
2023/04/06 08:40:11;;;;;;;32.95;21.38;;;;;;;24.32;38.41;101648.53;5053227;28;20123;-49
2023/04/06 08:42:42;;;;;;;35.22;21.23;;;;;;;24.38;38.69;101642.53;5053171;28;20471;-60
2023/04/06 08:45:11;;;;;;;37.88;21.75;;;;;;;24.30;38.82;101652.84;5053233;28;20036;-60
2023/04/06 08:47:39;;;;;;;29.27;20.88;;;;;;;24.14;39.12;101654.22;5053274;28;20024;-60
2023/04/06 08:50:11;;;;;;;36.83;21.23;;;;;;;24.17;39.20;101649.03;5051890;28;20163;-60
2023/04/06 08:52:40;;;;;;;36.55;22.98;;;;;;;24.22;39.20;101651.78;5052725;28;20041;-57
2023/04/06 08:55:09;;;;;;;32.67;21.58;;;;;;;24.23;39.13;101653.53;5051740;28;20359;-60
2023/04/06 08:57:38;;;;;;;30.38;21.17;;;;;;;24.10;39.44;101666.38;5053039;28;20032;-49
2023/04/06 09:00:08;;;;;;;29.77;20.25;;;;;;;24.32;38.95;101663.34;5052979;28;20033;-57
2023/04/06 09:02:40;;;;;;;32.05;21.88;;;;;;;24.38;38.28;101664.38;5053403;28;20033;-49
2023/04/06 09:05:11;;;;;;;40.20;27.42;;;;;;;24.50;38.28;101663.75;5051778;28;20025;-47
2023/04/06 09:07:43;;;;;;;45.67;28.40;;;;;;;24.40;38.44;101669.66;5052876;28;20565;-60
2023/04/06 09:10:13;;;;;;;33.88;22.58;;;;;;;24.34;38.30;101675.63;5035387;28;20108;-52
2023/04/06 09:12:41;;;;;;;36.45;25.17;;;;;;;24.35;38.19;101669.53;5053005;28;20025;-60
2023/04/06 09:15:20;;;;;;;34.40;24.25;;;;;;;24.38;38.33;101674.84;5052655;28;20432;-60
2023/04/06 09:17:49;;;;;;;32.95;23.58;;;;;;;24.43;38.16;101677.56;5053226;28;20032;-59
2023/04/06 09:20:26;;;;;;;29.77;20.70;;;;;;;24.43;37.94;101670.63;5052858;28;20025;-60
2023/04/06 09:22:55;;;;;;;32.92;21.30;;;;;;;24.44;37.80;101674.09;5052897;28;20036;-49
2023/04/06 09:25:26;;;;;;;29.10;21.40;;;;;;;24.18;38.50;101676.13;5053027;28;20047;-60
2023/04/06 09:28:06;;;;;;;32.40;20.83;;;;;;;24.27;38.25;101690.34;5052684;28;20035;-59
2023/04/06 09:30:35;;;;;;;34.00;25.38;;;;;;;24.17;38.51;101695.31;5055962;28;20025;-58
2023/04/06 09:33:04;;;;;;;36.63;24.48;;;;;;;24.18;38.77;101697.09;5057060;28;20029;-59
2023/04/06 09:35:33;;;;;;;34.70;23.30;;;;;;;24.24;38.43;101689.41;5056394;28;20025;-58
2023/04/06 09:38:11;;;;;;;29.05;20.25;;;;;;;24.20;38.26;101691.06;5055805;28;20115;-59
2023/04/06 09:40:49;;;;;;;32.38;23.00;;;;;;;24.13;38.79;101699.63;5056784;28;20521;-58
2023/04/06 09:43:28;;;;;;;34.22;23.38;;;;;;;24.17;38.66;101695.31;5056685;28;20032;-59
2023/04/06 09:45:58;;;;;;;32.72;22.05;;;;;;;24.14;38.47;101695.28;5055622;28;20040;-58
2023/04/06 09:48:27;;;;;;;31.08;20.23;;;;;;;24.14;38.59;101687.41;5056844;28;20056;-56
2023/04/06 09:51:00;;;;;;;34.22;22.88;;;;;;;24.09;38.61;101688.19;5056603;28;20188;-57
2023/04/06 09:53:29;;;;;;;34.42;25.00;;;;;;;24.12;38.26;101706.63;5039163;28;20095;-58
2023/04/06 09:56:00;;;;;;;31.45;22.33;;;;;;;24.09;38.59;101708.25;5056014;28;20028;-59
2023/04/06 09:58:29;;;;;;;30.15;19.75;;;;;;;24.04;38.46;101713.38;5038670;28;20017;-56
2023/04/06 10:01:07;;;;;;;37.75;22.77;;;;;;;24.01;38.62;101715.94;5055169;28;20028;-51
2023/04/06 10:03:46;;;;;;;30.65;21.63;;;;;;;24.04;38.52;101716.00;5056735;28;20025;-47
2023/04/06 10:06:17;;;;;;;25.67;19.35;;;;;;;24.05;38.45;101720.41;5055840;28;20037;-53
2023/04/06 10:08:47;;;;;;;33.22;24.00;;;;;;;24.10;38.18;101717.91;5055973;28;20108;-52
2023/04/06 10:11:15;;;;;;;33.55;24.90;;;;;;;24.08;38.16;101717.88;5108502;22;20056;-51
2023/04/06 10:13:44;;;;;;;28.25;19.95;;;;;;;24.12;37.88;101729.31;5055642;28;20078;-53
2023/04/06 10:16:15;;;;;;;39.15;25.85;;;;;;;24.13;38.18;101728.47;5056036;28;20040;-48
2023/04/06 10:18:48;;;;;;;36.10;25.00;;;;;;;24.09;37.92;101735.38;5056026;28;20078;-49
2023/04/06 10:21:20;;;;;;;33.90;23.33;;;;;;;24.10;37.89;101731.00;5054850;28;20485;-53
2023/04/06 10:24:05;;;;;;;29.67;20.25;;;;;;;24.11;37.78;101720.56;5055211;28;20083;-52
2023/04/06 10:26:33;;;;;;;31.92;22.02;;;;;;;24.18;37.15;101705.88;5054364;28;20021;-52
2023/04/06 10:29:05;;;;;;;29.58;20.05;;;;;;;24.16;37.15;101712.81;5055880;28;20063;-51
2023/04/06 10:31:34;;;;;;;28.77;19.00;;;;;;;24.10;37.06;101708.31;5055998;28;20028;-51
2023/04/06 10:34:03;;;;;;;33.15;18.63;;;;;;;24.07;37.61;101712.59;5054205;28;20116;-47
2023/04/06 10:36:36;;;;;;;29.30;18.75;;;;;;;24.03;37.61;101714.25;5055763;28;20024;-47
2023/04/06 10:39:06;;;;;;;28.67;18.65;;;;;;;23.93;38.06;101710.47;5055507;28;20033;-59
2023/04/06 10:41:38;;;;;;;32.55;17.90;;;;;;;23.71;38.43;101711.66;5054606;28;20029;-47
2023/04/06 10:44:06;;;;;;;28.60;19.08;;;;;;;23.63;38.56;101700.13;5054286;28;20032;-44
2023/04/06 10:46:35;;;;;;;27.13;19.23;;;;;;;23.59;38.99;101703.50;5055421;28;20029;-57
2023/04/06 10:49:13;;;;;;;31.67;20.52;;;;;;;23.54;39.00;101707.72;5055275;28;20047;-52
2023/04/06 10:51:42;;;;;;;37.50;21.83;;;;;;;23.51;39.38;101709.41;5054383;28;20029;-49
2023/04/06 10:54:12;;;;;;;32.78;22.00;;;;;;;23.52;39.49;101718.16;5054916;28;20486;-56
2023/04/06 10:56:41;;;;;;;34.78;22.00;;;;;;;23.58;38.92;101710.44;5054087;28;20056;-57
2023/04/06 10:59:09;;;;;;;33.72;22.55;;;;;;;23.61;39.11;101710.53;5055459;28;20021;-56
2023/04/06 11:01:38;;;;;;;35.05;24.52;;;;;;;23.67;39.31;101702.84;5054179;28;20028;-56
2023/04/06 11:04:08;;;;;;;37.60;25.45;;;;;;;23.75;38.87;101708.28;5055064;28;20143;-57
2023/04/06 11:06:36;;;;;;;43.88;29.90;;;;;;;23.76;39.38;101710.06;5055267;28;20029;-48
2023/04/06 11:09:05;;;;;;;48.33;32.50;;;;;;;23.73;39.37;101704.72;5055204;28;20025;-55